sensor_id;sensor_type;location;lat;lon;timestamp;P1;durP1;ratioP1;P2;durP2;ratioP2
12145;SDS011;6136;47.032;15.398;2022-08-06T00:00:57;7.78;;;7.07;;
12145;SDS011;6136;47.032;15.398;2022-08-06T00:03:27;8.40;;;7.22;;
12145;SDS011;6136;47.032;15.398;2022-08-06T00:05:55;7.50;;;6.80;;
12145;SDS011;6136;47.032;15.398;2022-08-06T00:08:24;7.47;;;6.82;;
12145;SDS011;6136;47.032;15.398;2022-08-06T00:10:52;6.93;;;6.22;;
12145;SDS011;6136;47.032;15.398;2022-08-06T00:13:20;8.18;;;6.70;;
12145;SDS011;6136;47.032;15.398;2022-08-06T00:15:48;7.70;;;7.00;;
12145;SDS011;6136;47.032;15.398;2022-08-06T00:18:37;7.25;;;6.65;;
12145;SDS011;6136;47.032;15.398;2022-08-06T00:21:05;8.15;;;7.38;;
12145;SDS011;6136;47.032;15.398;2022-08-06T00:23:37;7.70;;;7.00;;
12145;SDS011;6136;47.032;15.398;2022-08-06T00:26:18;7.80;;;7.10;;
12145;SDS011;6136;47.032;15.398;2022-08-06T00:28:46;9.30;;;7.43;;
12145;SDS011;6136;47.032;15.398;2022-08-06T00:31:14;9.68;;;7.07;;
12145;SDS011;6136;47.032;15.398;2022-08-06T00:33:43;7.30;;;6.60;;
12145;SDS011;6136;47.032;15.398;2022-08-06T00:36:22;7.70;;;6.90;;
12145;SDS011;6136;47.032;15.398;2022-08-06T00:38:50;7.72;;;7.03;;
12145;SDS011;6136;47.032;15.398;2022-08-06T00:41:19;7.63;;;6.72;;
12145;SDS011;6136;47.032;15.398;2022-08-06T00:43:48;7.28;;;6.68;;
12145;SDS011;6136;47.032;15.398;2022-08-06T00:46:16;7.40;;;6.70;;
12145;SDS011;6136;47.032;15.398;2022-08-06T00:48:46;7.53;;;6.93;;
12145;SDS011;6136;47.032;15.398;2022-08-06T00:51:19;8.52;;;6.72;;
12145;SDS011;6136;47.032;15.398;2022-08-06T00:53:47;8.70;;;7.90;;
12145;SDS011;6136;47.032;15.398;2022-08-06T00:56:15;7.93;;;7.13;;
12145;SDS011;6136;47.032;15.398;2022-08-06T00:58:43;7.13;;;6.57;;
12145;SDS011;6136;47.032;15.398;2022-08-06T01:01:11;6.78;;;6.07;;
12145;SDS011;6136;47.032;15.398;2022-08-06T01:03:43;7.35;;;6.65;;
12145;SDS011;6136;47.032;15.398;2022-08-06T01:06:18;6.68;;;5.82;;
12145;SDS011;6136;47.032;15.398;2022-08-06T01:09:07;6.78;;;6.10;;
12145;SDS011;6136;47.032;15.398;2022-08-06T01:11:36;6.22;;;5.63;;
12145;SDS011;6136;47.032;15.398;2022-08-06T01:14:04;10.93;;;7.20;;
12145;SDS011;6136;47.032;15.398;2022-08-06T01:16:37;7.47;;;6.80;;
12145;SDS011;6136;47.032;15.398;2022-08-06T01:19:25;7.53;;;6.82;;
12145;SDS011;6136;47.032;15.398;2022-08-06T01:22:32;8.07;;;7.28;;
12145;SDS011;6136;47.032;15.398;2022-08-06T01:28:16;5.75;;;5.25;;
12145;SDS011;6136;47.032;15.398;2022-08-06T01:30:57;7.85;;;7.03;;
12145;SDS011;6136;47.032;15.398;2022-08-06T01:33:35;7.57;;;6.82;;
12145;SDS011;6136;47.032;15.398;2022-08-06T01:36:07;7.38;;;6.00;;
12145;SDS011;6136;47.032;15.398;2022-08-06T01:38:41;8.68;;;6.15;;
12145;SDS011;6136;47.032;15.398;2022-08-06T01:41:23;6.05;;;5.55;;
12145;SDS011;6136;47.032;15.398;2022-08-06T01:44:25;6.50;;;5.65;;
12145;SDS011;6136;47.032;15.398;2022-08-06T01:46:57;7.50;;;5.80;;
12145;SDS011;6136;47.032;15.398;2022-08-06T01:49:30;7.50;;;5.97;;
12145;SDS011;6136;47.032;15.398;2022-08-06T01:52:24;8.18;;;7.43;;
12145;SDS011;6136;47.032;15.398;2022-08-06T01:54:55;8.10;;;7.30;;
12145;SDS011;6136;47.032;15.398;2022-08-06T01:57:26;8.00;;;6.93;;
12145;SDS011;6136;47.032;15.398;2022-08-06T02:00:20;7.68;;;6.97;;
12145;SDS011;6136;47.032;15.398;2022-08-06T02:02:52;7.82;;;6.97;;
12145;SDS011;6136;47.032;15.398;2022-08-06T02:05:23;8.55;;;7.75;;
12145;SDS011;6136;47.032;15.398;2022-08-06T02:07:57;9.20;;;7.65;;
12145;SDS011;6136;47.032;15.398;2022-08-06T02:10:47;8.05;;;7.35;;
12145;SDS011;6136;47.032;15.398;2022-08-06T02:13:18;8.93;;;8.02;;
12145;SDS011;6136;47.032;15.398;2022-08-06T02:15:50;7.60;;;6.88;;
12145;SDS011;6136;47.032;15.398;2022-08-06T02:18:24;9.60;;;7.75;;
12145;SDS011;6136;47.032;15.398;2022-08-06T02:21:01;8.88;;;7.30;;
12145;SDS011;6136;47.032;15.398;2022-08-06T02:23:39;9.75;;;7.85;;
12145;SDS011;6136;47.032;15.398;2022-08-06T02:26:10;9.65;;;6.78;;
12145;SDS011;6136;47.032;15.398;2022-08-06T02:28:41;7.38;;;6.68;;
12145;SDS011;6136;47.032;15.398;2022-08-06T02:31:17;7.93;;;6.65;;
12145;SDS011;6136;47.032;15.398;2022-08-06T02:33:48;7.18;;;6.40;;
12145;SDS011;6136;47.032;15.398;2022-08-06T02:36:29;6.18;;;5.57;;
12145;SDS011;6136;47.032;15.398;2022-08-06T02:39:15;6.05;;;5.45;;
12145;SDS011;6136;47.032;15.398;2022-08-06T02:41:59;5.43;;;4.80;;
12145;SDS011;6136;47.032;15.398;2022-08-06T02:44:34;5.25;;;4.85;;
12145;SDS011;6136;47.032;15.398;2022-08-06T02:47:14;5.15;;;4.75;;
12145;SDS011;6136;47.032;15.398;2022-08-06T02:49:47;5.55;;;5.05;;
12145;SDS011;6136;47.032;15.398;2022-08-06T02:52:25;5.28;;;4.78;;
12145;SDS011;6136;47.032;15.398;2022-08-06T02:55:01;6.97;;;4.97;;
12145;SDS011;6136;47.032;15.398;2022-08-06T02:57:35;5.40;;;4.90;;
12145;SDS011;6136;47.032;15.398;2022-08-06T03:00:16;4.68;;;4.25;;
12145;SDS011;6136;47.032;15.398;2022-08-06T03:02:57;5.95;;;5.45;;
12145;SDS011;6136;47.032;15.398;2022-08-06T03:05:28;5.80;;;5.30;;
12145;SDS011;6136;47.032;15.398;2022-08-06T03:08:18;5.38;;;4.97;;
12145;SDS011;6136;47.032;15.398;2022-08-06T03:10:52;5.93;;;5.40;;
12145;SDS011;6136;47.032;15.398;2022-08-06T03:13:21;5.10;;;4.70;;
12145;SDS011;6136;47.032;15.398;2022-08-06T03:15:55;5.40;;;4.82;;
12145;SDS011;6136;47.032;15.398;2022-08-06T03:18:29;4.90;;;4.50;;
12145;SDS011;6136;47.032;15.398;2022-08-06T03:20:58;4.95;;;4.53;;
12145;SDS011;6136;47.032;15.398;2022-08-06T03:23:28;8.25;;;4.75;;
12145;SDS011;6136;47.032;15.398;2022-08-06T03:25:58;5.80;;;4.40;;
12145;SDS011;6136;47.032;15.398;2022-08-06T03:28:31;4.95;;;4.43;;
12145;SDS011;6136;47.032;15.398;2022-08-06T03:31:01;4.32;;;4.00;;
12145;SDS011;6136;47.032;15.398;2022-08-06T03:33:31;5.90;;;5.20;;
12145;SDS011;6136;47.032;15.398;2022-08-06T03:36:19;4.97;;;4.57;;
12145;SDS011;6136;47.032;15.398;2022-08-06T03:38:51;4.47;;;4.07;;
12145;SDS011;6136;47.032;15.398;2022-08-06T03:41:23;5.25;;;4.80;;
12145;SDS011;6136;47.032;15.398;2022-08-06T03:43:54;4.50;;;4.20;;
12145;SDS011;6136;47.032;15.398;2022-08-06T03:46:30;4.97;;;4.47;;
12145;SDS011;6136;47.032;15.398;2022-08-06T03:49:04;4.93;;;4.38;;
12145;SDS011;6136;47.032;15.398;2022-08-06T03:51:35;13.52;;;4.35;;
12145;SDS011;6136;47.032;15.398;2022-08-06T03:54:28;7.15;;;4.40;;
12145;SDS011;6136;47.032;15.398;2022-08-06T03:57:06;4.53;;;4.13;;
12145;SDS011;6136;47.032;15.398;2022-08-06T03:59:39;4.40;;;4.05;;
12145;SDS011;6136;47.032;15.398;2022-08-06T04:02:26;5.35;;;4.93;;
12145;SDS011;6136;47.032;15.398;2022-08-06T04:05:04;4.57;;;4.18;;
12145;SDS011;6136;47.032;15.398;2022-08-06T04:07:35;4.25;;;3.85;;
12145;SDS011;6136;47.032;15.398;2022-08-06T04:10:21;4.57;;;4.07;;
12145;SDS011;6136;47.032;15.398;2022-08-06T04:13:00;4.90;;;3.92;;
12145;SDS011;6136;47.032;15.398;2022-08-06T04:15:34;4.60;;;4.20;;
12145;SDS011;6136;47.032;15.398;2022-08-06T04:18:03;4.93;;;4.43;;
12145;SDS011;6136;47.032;15.398;2022-08-06T04:20:39;4.68;;;4.00;;
12145;SDS011;6136;47.032;15.398;2022-08-06T04:23:09;4.03;;;3.63;;
12145;SDS011;6136;47.032;15.398;2022-08-06T04:25:39;5.10;;;4.00;;
12145;SDS011;6136;47.032;15.398;2022-08-06T04:28:09;4.63;;;4.22;;
12145;SDS011;6136;47.032;15.398;2022-08-06T04:30:39;4.43;;;4.03;;
12145;SDS011;6136;47.032;15.398;2022-08-06T04:33:13;3.47;;;3.17;;
12145;SDS011;6136;47.032;15.398;2022-08-06T04:35:46;4.25;;;3.65;;
12145;SDS011;6136;47.032;15.398;2022-08-06T04:38:29;3.95;;;3.55;;
12145;SDS011;6136;47.032;15.398;2022-08-06T04:40:58;4.10;;;3.78;;
12145;SDS011;6136;47.032;15.398;2022-08-06T04:43:28;4.53;;;3.80;;
12145;SDS011;6136;47.032;15.398;2022-08-06T04:46:03;4.30;;;3.55;;
12145;SDS011;6136;47.032;15.398;2022-08-06T04:48:44;3.75;;;3.45;;
12145;SDS011;6136;47.032;15.398;2022-08-06T04:51:15;5.32;;;3.13;;
12145;SDS011;6136;47.032;15.398;2022-08-06T04:54:03;3.15;;;2.95;;
12145;SDS011;6136;47.032;15.398;2022-08-06T04:56:37;3.85;;;3.55;;
12145;SDS011;6136;47.032;15.398;2022-08-06T04:59:14;3.97;;;3.05;;
12145;SDS011;6136;47.032;15.398;2022-08-06T05:01:42;3.50;;;3.20;;
12145;SDS011;6136;47.032;15.398;2022-08-06T05:04:22;3.63;;;3.10;;
12145;SDS011;6136;47.032;15.398;2022-08-06T05:06:54;3.80;;;3.47;;
12145;SDS011;6136;47.032;15.398;2022-08-06T05:09:28;4.18;;;3.17;;
12145;SDS011;6136;47.032;15.398;2022-08-06T05:12:11;3.30;;;3.03;;
12145;SDS011;6136;47.032;15.398;2022-08-06T05:14:44;3.10;;;2.90;;
12145;SDS011;6136;47.032;15.398;2022-08-06T05:17:17;3.63;;;2.92;;
12145;SDS011;6136;47.032;15.398;2022-08-06T05:19:51;3.33;;;3.03;;
12145;SDS011;6136;47.032;15.398;2022-08-06T05:22:25;2.95;;;2.75;;
12145;SDS011;6136;47.032;15.398;2022-08-06T05:25:16;2.67;;;2.47;;
12145;SDS011;6136;47.032;15.398;2022-08-06T05:27:47;2.80;;;2.60;;
12145;SDS011;6136;47.032;15.398;2022-08-06T05:30:29;3.80;;;2.78;;
12145;SDS011;6136;47.032;15.398;2022-08-06T05:32:57;2.95;;;2.75;;
12145;SDS011;6136;47.032;15.398;2022-08-06T05:35:27;3.67;;;2.65;;
12145;SDS011;6136;47.032;15.398;2022-08-06T05:38:07;3.05;;;2.70;;
12145;SDS011;6136;47.032;15.398;2022-08-06T05:40:37;3.65;;;2.60;;
12145;SDS011;6136;47.032;15.398;2022-08-06T05:43:19;2.38;;;2.17;;
12145;SDS011;6136;47.032;15.398;2022-08-06T05:45:48;2.63;;;2.42;;
12145;SDS011;6136;47.032;15.398;2022-08-06T05:48:20;2.28;;;2.08;;
12145;SDS011;6136;47.032;15.398;2022-08-06T05:50:56;2.90;;;2.45;;
12145;SDS011;6136;47.032;15.398;2022-08-06T05:53:29;2.30;;;2.10;;
12145;SDS011;6136;47.032;15.398;2022-08-06T05:56:23;2.30;;;2.10;;
12145;SDS011;6136;47.032;15.398;2022-08-06T05:59:04;2.45;;;2.25;;
12145;SDS011;6136;47.032;15.398;2022-08-06T06:01:41;2.67;;;2.47;;
12145;SDS011;6136;47.032;15.398;2022-08-06T06:04:10;2.63;;;2.13;;
12145;SDS011;6136;47.032;15.398;2022-08-06T06:06:41;1.92;;;1.83;;
12145;SDS011;6136;47.032;15.398;2022-08-06T06:09:12;2.30;;;2.10;;
12145;SDS011;6136;47.032;15.398;2022-08-06T06:11:41;2.20;;;2.00;;
12145;SDS011;6136;47.032;15.398;2022-08-06T06:14:26;2.10;;;2.00;;
12145;SDS011;6136;47.032;15.398;2022-08-06T06:17:04;2.05;;;1.95;;
12145;SDS011;6136;47.032;15.398;2022-08-06T06:19:43;2.67;;;1.98;;
12145;SDS011;6136;47.032;15.398;2022-08-06T06:22:20;2.05;;;1.95;;
12145;SDS011;6136;47.032;15.398;2022-08-06T06:24:55;7.35;;;2.35;;
12145;SDS011;6136;47.032;15.398;2022-08-06T06:27:29;2.30;;;2.10;;
12145;SDS011;6136;47.032;15.398;2022-08-06T06:30:13;1.95;;;1.85;;
12145;SDS011;6136;47.032;15.398;2022-08-06T06:33:08;3.28;;;2.03;;
12145;SDS011;6136;47.032;15.398;2022-08-06T06:35:46;2.10;;;2.00;;
12145;SDS011;6136;47.032;15.398;2022-08-06T06:38:24;2.60;;;2.10;;
12145;SDS011;6136;47.032;15.398;2022-08-06T06:41:05;2.10;;;2.00;;
12145;SDS011;6136;47.032;15.398;2022-08-06T06:43:48;2.58;;;2.33;;
12145;SDS011;6136;47.032;15.398;2022-08-06T06:46:21;1.92;;;1.83;;
12145;SDS011;6136;47.032;15.398;2022-08-06T06:49:06;3.33;;;1.85;;
12145;SDS011;6136;47.032;15.398;2022-08-06T06:52:00;2.00;;;1.90;;
12145;SDS011;6136;47.032;15.398;2022-08-06T06:54:35;2.47;;;1.80;;
12145;SDS011;6136;47.032;15.398;2022-08-06T06:57:09;2.20;;;2.00;;
12145;SDS011;6136;47.032;15.398;2022-08-06T06:59:42;2.08;;;1.98;;
12145;SDS011;6136;47.032;15.398;2022-08-06T07:02:30;1.90;;;1.80;;
12145;SDS011;6136;47.032;15.398;2022-08-06T07:05:02;1.73;;;1.63;;
12145;SDS011;6136;47.032;15.398;2022-08-06T07:07:33;2.10;;;1.92;;
12145;SDS011;6136;47.032;15.398;2022-08-06T07:10:05;1.90;;;1.80;;
12145;SDS011;6136;47.032;15.398;2022-08-06T07:12:39;2.00;;;1.90;;
12145;SDS011;6136;47.032;15.398;2022-08-06T07:15:10;1.70;;;1.60;;
12145;SDS011;6136;47.032;15.398;2022-08-06T07:17:44;1.92;;;1.83;;
12145;SDS011;6136;47.032;15.398;2022-08-06T07:20:16;1.73;;;1.63;;
12145;SDS011;6136;47.032;15.398;2022-08-06T07:22:52;2.20;;;2.03;;
12145;SDS011;6136;47.032;15.398;2022-08-06T07:25:43;1.83;;;1.73;;
12145;SDS011;6136;47.032;15.398;2022-08-06T07:28:22;1.75;;;1.65;;
12145;SDS011;6136;47.032;15.398;2022-08-06T07:30:54;1.70;;;1.60;;
12145;SDS011;6136;47.032;15.398;2022-08-06T07:33:30;2.03;;;1.92;;
12145;SDS011;6136;47.032;15.398;2022-08-06T07:36:20;1.70;;;1.60;;
12145;SDS011;6136;47.032;15.398;2022-08-06T07:38:53;1.55;;;1.45;;
12145;SDS011;6136;47.032;15.398;2022-08-06T07:41:26;1.70;;;1.60;;
12145;SDS011;6136;47.032;15.398;2022-08-06T07:43:59;1.90;;;1.80;;
12145;SDS011;6136;47.032;15.398;2022-08-06T07:46:31;1.90;;;1.80;;
12145;SDS011;6136;47.032;15.398;2022-08-06T07:49:06;2.10;;;2.00;;
12145;SDS011;6136;47.032;15.398;2022-08-06T07:51:37;1.65;;;1.55;;
12145;SDS011;6136;47.032;15.398;2022-08-06T07:54:09;1.95;;;1.85;;
12145;SDS011;6136;47.032;15.398;2022-08-06T07:56:42;1.60;;;1.50;;
12145;SDS011;6136;47.032;15.398;2022-08-06T07:59:27;1.80;;;1.70;;
12145;SDS011;6136;47.032;15.398;2022-08-06T08:01:57;1.70;;;1.60;;
12145;SDS011;6136;47.032;15.398;2022-08-06T08:04:26;1.70;;;1.60;;
12145;SDS011;6136;47.032;15.398;2022-08-06T08:07:18;2.10;;;2.00;;
12145;SDS011;6136;47.032;15.398;2022-08-06T08:10:03;3.08;;;2.13;;
12145;SDS011;6136;47.032;15.398;2022-08-06T08:12:32;1.90;;;1.80;;
12145;SDS011;6136;47.032;15.398;2022-08-06T08:15:05;1.88;;;1.77;;
12145;SDS011;6136;47.032;15.398;2022-08-06T08:17:44;1.85;;;1.75;;
12145;SDS011;6136;47.032;15.398;2022-08-06T08:20:23;1.70;;;1.60;;
12145;SDS011;6136;47.032;15.398;2022-08-06T08:23:00;2.28;;;1.85;;
12145;SDS011;6136;47.032;15.398;2022-08-06T08:25:30;2.00;;;1.90;;
12145;SDS011;6136;47.032;15.398;2022-08-06T08:28:09;1.80;;;1.70;;
12145;SDS011;6136;47.032;15.398;2022-08-06T08:30:44;1.98;;;1.88;;
12145;SDS011;6136;47.032;15.398;2022-08-06T08:33:15;1.83;;;1.67;;
12145;SDS011;6136;47.032;15.398;2022-08-06T08:35:45;2.90;;;1.70;;
12145;SDS011;6136;47.032;15.398;2022-08-06T08:38:16;2.15;;;1.88;;
12145;SDS011;6136;47.032;15.398;2022-08-06T08:40:44;2.30;;;2.10;;
12145;SDS011;6136;47.032;15.398;2022-08-06T08:43:17;1.85;;;1.75;;
12145;SDS011;6136;47.032;15.398;2022-08-06T08:45:50;2.97;;;1.75;;
12145;SDS011;6136;47.032;15.398;2022-08-06T08:48:22;1.80;;;1.70;;
12145;SDS011;6136;47.032;15.398;2022-08-06T08:50:55;2.63;;;1.80;;
12145;SDS011;6136;47.032;15.398;2022-08-06T08:53:26;2.40;;;2.20;;
12145;SDS011;6136;47.032;15.398;2022-08-06T08:56:11;1.63;;;1.52;;
12145;SDS011;6136;47.032;15.398;2022-08-06T08:59:00;2.20;;;2.00;;
12145;SDS011;6136;47.032;15.398;2022-08-06T09:01:50;1.95;;;1.85;;
12145;SDS011;6136;47.032;15.398;2022-08-06T09:04:22;1.80;;;1.70;;
12145;SDS011;6136;47.032;15.398;2022-08-06T09:06:53;1.98;;;1.88;;
12145;SDS011;6136;47.032;15.398;2022-08-06T09:09:22;2.10;;;1.90;;
12145;SDS011;6136;47.032;15.398;2022-08-06T09:11:55;2.08;;;1.90;;
12145;SDS011;6136;47.032;15.398;2022-08-06T09:14:31;2.10;;;2.00;;
12145;SDS011;6136;47.032;15.398;2022-08-06T09:17:02;2.00;;;1.90;;
12145;SDS011;6136;47.032;15.398;2022-08-06T09:19:31;1.77;;;1.67;;
12145;SDS011;6136;47.032;15.398;2022-08-06T09:22:03;1.90;;;1.80;;
12145;SDS011;6136;47.032;15.398;2022-08-06T09:24:31;1.55;;;1.45;;
12145;SDS011;6136;47.032;15.398;2022-08-06T09:27:01;2.10;;;2.00;;
12145;SDS011;6136;47.032;15.398;2022-08-06T09:29:52;2.33;;;2.13;;
12145;SDS011;6136;47.032;15.398;2022-08-06T09:32:38;1.80;;;1.70;;
12145;SDS011;6136;47.032;15.398;2022-08-06T09:35:23;2.30;;;2.10;;
12145;SDS011;6136;47.032;15.398;2022-08-06T09:38:10;2.00;;;1.90;;
12145;SDS011;6136;47.032;15.398;2022-08-06T09:43:40;3.33;;;2.58;;
12145;SDS011;6136;47.032;15.398;2022-08-06T09:46:36;3.67;;;2.15;;
12145;SDS011;6136;47.032;15.398;2022-08-06T09:49:07;2.33;;;2.13;;
12145;SDS011;6136;47.032;15.398;2022-08-06T09:52:10;2.63;;;2.42;;
12145;SDS011;6136;47.032;15.398;2022-08-06T09:54:39;2.40;;;2.20;;
12145;SDS011;6136;47.032;15.398;2022-08-06T09:57:08;2.58;;;2.08;;
12145;SDS011;6136;47.032;15.398;2022-08-06T09:59:43;2.67;;;2.00;;
12145;SDS011;6136;47.032;15.398;2022-08-06T10:02:16;2.58;;;2.17;;
12145;SDS011;6136;47.032;15.398;2022-08-06T10:04:50;2.20;;;2.10;;
12145;SDS011;6136;47.032;15.398;2022-08-06T10:07:28;2.13;;;2.00;;
12145;SDS011;6136;47.032;15.398;2022-08-06T10:10:05;2.15;;;2.05;;
12145;SDS011;6136;47.032;15.398;2022-08-06T10:12:35;2.22;;;2.13;;
12145;SDS011;6136;47.032;15.398;2022-08-06T10:15:03;2.15;;;1.98;;
12145;SDS011;6136;47.032;15.398;2022-08-06T10:17:33;2.70;;;2.40;;
12145;SDS011;6136;47.032;15.398;2022-08-06T10:20:19;2.67;;;2.47;;
12145;SDS011;6136;47.032;15.398;2022-08-06T10:22:51;2.72;;;2.53;;
12145;SDS011;6136;47.032;15.398;2022-08-06T10:25:24;2.70;;;2.20;;
12145;SDS011;6136;47.032;15.398;2022-08-06T10:27:56;2.35;;;2.20;;
12145;SDS011;6136;47.032;15.398;2022-08-06T10:30:24;2.53;;;2.33;;
12145;SDS011;6136;47.032;15.398;2022-08-06T10:33:01;2.25;;;2.10;;
12145;SDS011;6136;47.032;15.398;2022-08-06T10:35:45;3.92;;;2.20;;
12145;SDS011;6136;47.032;15.398;2022-08-06T10:38:15;2.80;;;2.60;;
12145;SDS011;6136;47.032;15.398;2022-08-06T10:40:48;2.50;;;2.30;;
12145;SDS011;6136;47.032;15.398;2022-08-06T10:43:23;2.45;;;2.25;;
12145;SDS011;6136;47.032;15.398;2022-08-06T10:45:52;2.53;;;2.33;;
12145;SDS011;6136;47.032;15.398;2022-08-06T10:48:21;2.47;;;2.28;;
12145;SDS011;6136;47.032;15.398;2022-08-06T10:51:11;2.47;;;2.28;;
12145;SDS011;6136;47.032;15.398;2022-08-06T10:53:41;2.13;;;2.03;;
12145;SDS011;6136;47.032;15.398;2022-08-06T10:56:27;2.58;;;2.38;;
12145;SDS011;6136;47.032;15.398;2022-08-06T10:59:04;2.30;;;2.10;;
12145;SDS011;6136;47.032;15.398;2022-08-06T11:01:35;2.40;;;2.20;;
12145;SDS011;6136;47.032;15.398;2022-08-06T11:04:14;2.30;;;2.10;;
12145;SDS011;6136;47.032;15.398;2022-08-06T11:06:56;2.15;;;1.98;;
12145;SDS011;6136;47.032;15.398;2022-08-06T11:09:40;2.10;;;2.00;;
12145;SDS011;6136;47.032;15.398;2022-08-06T11:12:31;3.45;;;2.47;;
12145;SDS011;6136;47.032;15.398;2022-08-06T11:15:13;2.55;;;2.35;;
12145;SDS011;6136;47.032;15.398;2022-08-06T11:17:42;3.33;;;2.50;;
12145;SDS011;6136;47.032;15.398;2022-08-06T11:23:05;2.33;;;2.13;;
12145;SDS011;6136;47.032;15.398;2022-08-06T11:26:08;3.00;;;2.70;;
12145;SDS011;6136;47.032;15.398;2022-08-06T11:28:57;3.10;;;2.72;;
12145;SDS011;6136;47.032;15.398;2022-08-06T11:34:19;2.60;;;2.40;;
12145;SDS011;6136;47.032;15.398;2022-08-06T11:36:59;3.08;;;2.42;;
12145;SDS011;6136;47.032;15.398;2022-08-06T11:40:05;2.80;;;2.60;;
12145;SDS011;6136;47.032;15.398;2022-08-06T11:42:41;5.05;;;2.63;;
12145;SDS011;6136;47.032;15.398;2022-08-06T11:45:16;2.90;;;2.63;;
12145;SDS011;6136;47.032;15.398;2022-08-06T11:48:04;2.55;;;2.35;;
12145;SDS011;6136;47.032;15.398;2022-08-06T11:50:52;3.42;;;2.10;;
12145;SDS011;6136;47.032;15.398;2022-08-06T11:56:13;2.78;;;2.55;;
12145;SDS011;6136;47.032;15.398;2022-08-06T11:58:41;4.03;;;2.92;;
12145;SDS011;6136;47.032;15.398;2022-08-06T12:01:10;2.20;;;2.00;;
12145;SDS011;6136;47.032;15.398;2022-08-06T12:03:58;1.98;;;1.88;;
12145;SDS011;6136;47.032;15.398;2022-08-06T12:06:27;2.35;;;2.20;;
12145;SDS011;6136;47.032;15.398;2022-08-06T12:09:06;2.53;;;2.33;;
12145;SDS011;6136;47.032;15.398;2022-08-06T12:11:44;2.17;;;2.08;;
12145;SDS011;6136;47.032;15.398;2022-08-06T12:17:15;2.13;;;2.03;;
12145;SDS011;6136;47.032;15.398;2022-08-06T12:19:44;2.45;;;2.25;;
12145;SDS011;6136;47.032;15.398;2022-08-06T12:22:27;1.98;;;1.88;;
12145;SDS011;6136;47.032;15.398;2022-08-06T12:24:56;2.40;;;2.20;;
12145;SDS011;6136;47.032;15.398;2022-08-06T12:27:39;2.33;;;2.13;;
12145;SDS011;6136;47.032;15.398;2022-08-06T12:30:16;2.47;;;2.28;;
12145;SDS011;6136;47.032;15.398;2022-08-06T12:33:03;2.28;;;2.08;;
12145;SDS011;6136;47.032;15.398;2022-08-06T12:35:47;2.10;;;2.00;;
12145;SDS011;6136;47.032;15.398;2022-08-06T12:38:16;2.20;;;2.00;;
12145;SDS011;6136;47.032;15.398;2022-08-06T12:40:54;2.83;;;2.30;;
12145;SDS011;6136;47.032;15.398;2022-08-06T12:43:25;2.30;;;2.10;;
12145;SDS011;6136;47.032;15.398;2022-08-06T12:46:11;2.53;;;2.33;;
12145;SDS011;6136;47.032;15.398;2022-08-06T12:48:46;2.65;;;2.40;;
12145;SDS011;6136;47.032;15.398;2022-08-06T12:51:16;2.55;;;2.35;;
12145;SDS011;6136;47.032;15.398;2022-08-06T12:53:52;2.60;;;2.03;;
12145;SDS011;6136;47.032;15.398;2022-08-06T12:56:22;2.17;;;2.03;;
12145;SDS011;6136;47.032;15.398;2022-08-06T12:58:59;2.60;;;2.40;;
12145;SDS011;6136;47.032;15.398;2022-08-06T13:01:31;2.85;;;2.17;;
12145;SDS011;6136;47.032;15.398;2022-08-06T13:04:22;2.40;;;2.20;;
12145;SDS011;6136;47.032;15.398;2022-08-06T13:06:55;2.67;;;2.47;;
12145;SDS011;6136;47.032;15.398;2022-08-06T13:09:30;2.20;;;2.10;;
12145;SDS011;6136;47.032;15.398;2022-08-06T13:12:11;2.10;;;2.00;;
12145;SDS011;6136;47.032;15.398;2022-08-06T13:14:50;2.47;;;2.22;;
12145;SDS011;6136;47.032;15.398;2022-08-06T13:17:22;2.28;;;2.08;;
12145;SDS011;6136;47.032;15.398;2022-08-06T13:20:07;1.80;;;1.70;;
12145;SDS011;6136;47.032;15.398;2022-08-06T13:22:49;2.05;;;1.95;;
12145;SDS011;6136;47.032;15.398;2022-08-06T13:25:17;2.47;;;2.28;;
12145;SDS011;6136;47.032;15.398;2022-08-06T13:28:09;2.28;;;2.10;;
12145;SDS011;6136;47.032;15.398;2022-08-06T13:30:41;2.72;;;1.85;;
12145;SDS011;6136;47.032;15.398;2022-08-06T13:33:14;2.88;;;1.85;;
12145;SDS011;6136;47.032;15.398;2022-08-06T13:35:43;2.40;;;2.00;;
12145;SDS011;6136;47.032;15.398;2022-08-06T13:38:25;2.05;;;1.70;;
12145;SDS011;6136;47.032;15.398;2022-08-06T13:40:54;2.00;;;1.85;;
12145;SDS011;6136;47.032;15.398;2022-08-06T13:43:33;1.95;;;1.80;;
12145;SDS011;6136;47.032;15.398;2022-08-06T13:46:11;1.70;;;1.60;;
12145;SDS011;6136;47.032;15.398;2022-08-06T13:48:45;2.15;;;2.05;;
12145;SDS011;6136;47.032;15.398;2022-08-06T13:51:15;2.05;;;1.85;;
12145;SDS011;6136;47.032;15.398;2022-08-06T13:53:52;2.05;;;1.92;;
12145;SDS011;6136;47.032;15.398;2022-08-06T13:56:22;1.90;;;1.70;;
12145;SDS011;6136;47.032;15.398;2022-08-06T13:58:54;1.70;;;1.60;;
12145;SDS011;6136;47.032;15.398;2022-08-06T14:01:26;2.00;;;1.90;;
12145;SDS011;6136;47.032;15.398;2022-08-06T14:04:10;1.70;;;1.60;;
12145;SDS011;6136;47.032;15.398;2022-08-06T14:06:45;1.65;;;1.55;;
12145;SDS011;6136;47.032;15.398;2022-08-06T14:09:18;1.70;;;1.60;;
12145;SDS011;6136;47.032;15.398;2022-08-06T14:11:49;1.63;;;1.52;;
12145;SDS011;6136;47.032;15.398;2022-08-06T14:14:20;2.00;;;1.90;;
12145;SDS011;6136;47.032;15.398;2022-08-06T14:16:52;1.60;;;1.50;;
12145;SDS011;6136;47.032;15.398;2022-08-06T14:19:21;1.65;;;1.55;;
12145;SDS011;6136;47.032;15.398;2022-08-06T14:22:10;1.58;;;1.48;;
12145;SDS011;6136;47.032;15.398;2022-08-06T14:24:38;1.70;;;1.60;;
12145;SDS011;6136;47.032;15.398;2022-08-06T14:27:19;1.60;;;1.50;;
12145;SDS011;6136;47.032;15.398;2022-08-06T14:29:50;2.13;;;1.70;;
12145;SDS011;6136;47.032;15.398;2022-08-06T14:32:39;1.60;;;1.50;;
12145;SDS011;6136;47.032;15.398;2022-08-06T14:35:13;1.90;;;1.73;;
12145;SDS011;6136;47.032;15.398;2022-08-06T14:37:43;1.50;;;1.40;;
12145;SDS011;6136;47.032;15.398;2022-08-06T14:40:18;1.98;;;1.88;;
12145;SDS011;6136;47.032;15.398;2022-08-06T14:43:25;1.70;;;1.60;;
12145;SDS011;6136;47.032;15.398;2022-08-06T14:46:21;1.50;;;1.40;;
12145;SDS011;6136;47.032;15.398;2022-08-06T14:48:53;1.77;;;1.58;;
12145;SDS011;6136;47.032;15.398;2022-08-06T14:51:23;1.42;;;1.40;;
12145;SDS011;6136;47.032;15.398;2022-08-06T14:54:03;1.50;;;1.40;;
12145;SDS011;6136;47.032;15.398;2022-08-06T14:56:37;1.70;;;1.60;;
12145;SDS011;6136;47.032;15.398;2022-08-06T14:59:05;1.52;;;1.42;;
12145;SDS011;6136;47.032;15.398;2022-08-06T15:01:33;1.40;;;1.30;;
12145;SDS011;6136;47.032;15.398;2022-08-06T15:04:05;1.40;;;1.30;;
12145;SDS011;6136;47.032;15.398;2022-08-06T15:06:48;1.40;;;1.30;;
12145;SDS011;6136;47.032;15.398;2022-08-06T15:09:19;1.10;;;1.10;;
12145;SDS011;6136;47.032;15.398;2022-08-06T15:12:08;1.33;;;1.23;;
12145;SDS011;6136;47.032;15.398;2022-08-06T15:14:36;1.50;;;1.40;;
12145;SDS011;6136;47.032;15.398;2022-08-06T15:17:09;1.58;;;1.48;;
12145;SDS011;6136;47.032;15.398;2022-08-06T15:19:59;1.52;;;1.42;;
12145;SDS011;6136;47.032;15.398;2022-08-06T15:22:27;1.50;;;1.40;;
12145;SDS011;6136;47.032;15.398;2022-08-06T15:24:56;1.60;;;1.40;;
12145;SDS011;6136;47.032;15.398;2022-08-06T15:27:30;1.17;;;1.17;;
12145;SDS011;6136;47.032;15.398;2022-08-06T15:29:59;1.58;;;1.40;;
12145;SDS011;6136;47.032;15.398;2022-08-06T15:32:27;1.20;;;1.20;;
12145;SDS011;6136;47.032;15.398;2022-08-06T15:34:55;2.15;;;1.67;;
12145;SDS011;6136;47.032;15.398;2022-08-06T15:37:24;1.30;;;1.20;;
12145;SDS011;6136;47.032;15.398;2022-08-06T15:40:13;1.60;;;1.50;;
12145;SDS011;6136;47.032;15.398;2022-08-06T15:42:41;1.70;;;1.50;;
12145;SDS011;6136;47.032;15.398;2022-08-06T15:45:09;1.10;;;1.10;;
12145;SDS011;6136;47.032;15.398;2022-08-06T15:48:00;3.70;;;1.40;;
12145;SDS011;6136;47.032;15.398;2022-08-06T15:50:30;1.10;;;1.10;;
12145;SDS011;6136;47.032;15.398;2022-08-06T15:53:06;1.00;;;1.00;;
12145;SDS011;6136;47.032;15.398;2022-08-06T15:55:48;1.25;;;1.15;;
12145;SDS011;6136;47.032;15.398;2022-08-06T15:58:16;1.35;;;1.25;;